sensor_id;sensor_type;location;lat;lon;timestamp;P1;durP1;ratioP1;P2;durP2;ratioP2
51612;SDS011;37694;51.748;14.326;2024-03-23T00:56:02;10.43;;;5.85;;
51612;SDS011;37694;51.748;14.326;2024-03-23T00:58:28;7.55;;;5.93;;
51612;SDS011;37694;51.748;14.326;2024-03-23T01:00:54;10.40;;;7.18;;
51612;SDS011;37694;51.748;14.326;2024-03-23T01:03:20;8.98;;;6.03;;
51612;SDS011;37694;51.748;14.326;2024-03-23T01:05:45;7.40;;;5.82;;
51612;SDS011;37694;51.748;14.326;2024-03-23T01:08:11;7.90;;;6.93;;
51612;SDS011;37694;51.748;14.326;2024-03-23T01:10:37;9.63;;;6.05;;
51612;SDS011;37694;51.748;14.326;2024-03-23T01:13:02;7.53;;;6.00;;
51612;SDS011;37694;51.748;14.326;2024-03-23T01:15:28;11.02;;;6.60;;
51612;SDS011;37694;51.748;14.326;2024-03-23T01:17:54;8.50;;;6.18;;
51612;SDS011;37694;51.748;14.326;2024-03-23T01:20:19;9.20;;;5.97;;
51612;SDS011;37694;51.748;14.326;2024-03-23T01:22:45;8.15;;;6.47;;
51612;SDS011;37694;51.748;14.326;2024-03-23T01:25:11;12.65;;;6.90;;
51612;SDS011;37694;51.748;14.326;2024-03-23T01:27:36;8.30;;;6.65;;
51612;SDS011;37694;51.748;14.326;2024-03-23T01:30:02;7.90;;;6.30;;
51612;SDS011;37694;51.748;14.326;2024-03-23T01:32:28;9.63;;;6.90;;
51612;SDS011;37694;51.748;14.326;2024-03-23T01:34:54;9.57;;;6.03;;
51612;SDS011;37694;51.748;14.326;2024-03-23T01:37:19;8.00;;;6.30;;
51612;SDS011;37694;51.748;14.326;2024-03-23T01:39:45;8.98;;;6.50;;
51612;SDS011;37694;51.748;14.326;2024-03-23T01:42:11;8.50;;;6.05;;
51612;SDS011;37694;51.748;14.326;2024-03-23T01:44:36;8.95;;;6.47;;
51612;SDS011;37694;51.748;14.326;2024-03-23T01:47:03;9.20;;;6.75;;
51612;SDS011;37694;51.748;14.326;2024-03-23T01:49:28;7.65;;;6.30;;
51612;SDS011;37694;51.748;14.326;2024-03-23T01:51:54;7.30;;;6.00;;
51612;SDS011;37694;51.748;14.326;2024-03-23T01:54:20;7.03;;;5.97;;
51612;SDS011;37694;51.748;14.326;2024-03-23T01:56:46;7.32;;;5.88;;
51612;SDS011;37694;51.748;14.326;2024-03-23T01:59:14;8.88;;;6.80;;
51612;SDS011;37694;51.748;14.326;2024-03-23T02:01:39;7.97;;;6.68;;
51612;SDS011;37694;51.748;14.326;2024-03-23T02:04:06;6.10;;;5.32;;
51612;SDS011;37694;51.748;14.326;2024-03-23T02:06:34;12.02;;;6.45;;
51612;SDS011;37694;51.748;14.326;2024-03-23T02:08:59;10.25;;;7.07;;
51612;SDS011;37694;51.748;14.326;2024-03-23T02:11:25;8.40;;;6.25;;
51612;SDS011;37694;51.748;14.326;2024-03-23T02:13:51;8.90;;;6.00;;
51612;SDS011;37694;51.748;14.326;2024-03-23T02:16:16;11.10;;;7.05;;
51612;SDS011;37694;51.748;14.326;2024-03-23T02:18:42;7.10;;;5.88;;
51612;SDS011;37694;51.748;14.326;2024-03-23T02:21:08;7.75;;;6.40;;
51612;SDS011;37694;51.748;14.326;2024-03-23T02:23:33;8.10;;;6.32;;
51612;SDS011;37694;51.748;14.326;2024-03-23T02:25:59;8.75;;;6.43;;
51612;SDS011;37694;51.748;14.326;2024-03-23T02:28:25;5.82;;;5.18;;
51612;SDS011;37694;51.748;14.326;2024-03-23T02:30:51;8.70;;;6.45;;
51612;SDS011;37694;51.748;14.326;2024-03-23T02:33:17;8.38;;;6.45;;
51612;SDS011;37694;51.748;14.326;2024-03-23T02:35:45;7.57;;;6.47;;
51612;SDS011;37694;51.748;14.326;2024-03-23T02:38:12;6.68;;;5.50;;
51612;SDS011;37694;51.748;14.326;2024-03-23T02:40:38;7.28;;;6.25;;
51612;SDS011;37694;51.748;14.326;2024-03-23T02:43:07;8.30;;;6.75;;
51612;SDS011;37694;51.748;14.326;2024-03-23T02:45:32;6.88;;;5.75;;
51612;SDS011;37694;51.748;14.326;2024-03-23T02:47:58;6.63;;;5.82;;
51612;SDS011;37694;51.748;14.326;2024-03-23T02:50:24;7.78;;;6.25;;
51612;SDS011;37694;51.748;14.326;2024-03-23T02:52:49;10.25;;;5.70;;
51612;SDS011;37694;51.748;14.326;2024-03-23T02:55:15;7.40;;;5.85;;
51612;SDS011;37694;51.748;14.326;2024-03-23T02:57:41;7.93;;;6.05;;
51612;SDS011;37694;51.748;14.326;2024-03-23T03:00:07;6.88;;;6.03;;
51612;SDS011;37694;51.748;14.326;2024-03-23T03:02:34;8.88;;;5.93;;
51612;SDS011;37694;51.748;14.326;2024-03-23T03:04:59;10.07;;;5.88;;
51612;SDS011;37694;51.748;14.326;2024-03-23T03:07:25;7.78;;;5.45;;
51612;SDS011;37694;51.748;14.326;2024-03-23T03:09:51;9.60;;;6.22;;
51612;SDS011;37694;51.748;14.326;2024-03-23T03:12:17;7.82;;;6.05;;
51612;SDS011;37694;51.748;14.326;2024-03-23T03:14:42;8.15;;;6.10;;
51612;SDS011;37694;51.748;14.326;2024-03-23T03:17:08;6.88;;;5.40;;
51612;SDS011;37694;51.748;14.326;2024-03-23T03:19:34;6.00;;;5.40;;
51612;SDS011;37694;51.748;14.326;2024-03-23T03:21:59;7.85;;;5.95;;
51612;SDS011;37694;51.748;14.326;2024-03-23T03:24:25;8.73;;;6.25;;
51612;SDS011;37694;51.748;14.326;2024-03-23T03:26:51;6.90;;;5.97;;
51612;SDS011;37694;51.748;14.326;2024-03-23T03:29:16;8.05;;;5.95;;
51612;SDS011;37694;51.748;14.326;2024-03-23T03:31:42;9.20;;;6.53;;
51612;SDS011;37694;51.748;14.326;2024-03-23T03:34:08;6.35;;;5.45;;
51612;SDS011;37694;51.748;14.326;2024-03-23T03:36:34;6.80;;;5.50;;
51612;SDS011;37694;51.748;14.326;2024-03-23T03:39:00;6.13;;;5.30;;
51612;SDS011;37694;51.748;14.326;2024-03-23T03:41:28;7.97;;;5.78;;
51612;SDS011;37694;51.748;14.326;2024-03-23T03:43:53;7.82;;;5.55;;
51612;SDS011;37694;51.748;14.326;2024-03-23T03:46:20;8.10;;;5.53;;
51612;SDS011;37694;51.748;14.326;2024-03-23T03:48:46;7.68;;;5.80;;
51612;SDS011;37694;51.748;14.326;2024-03-23T03:51:13;6.47;;;5.03;;
51612;SDS011;37694;51.748;14.326;2024-03-23T03:53:39;6.18;;;5.15;;
51612;SDS011;37694;51.748;14.326;2024-03-23T03:56:05;8.45;;;5.53;;
51612;SDS011;37694;51.748;14.326;2024-03-23T03:58:30;6.13;;;5.53;;
51612;SDS011;37694;51.748;14.326;2024-03-23T04:00:56;8.35;;;6.07;;
51612;SDS011;37694;51.748;14.326;2024-03-23T04:03:22;7.63;;;5.80;;
51612;SDS011;37694;51.748;14.326;2024-03-23T04:05:53;8.02;;;5.35;;
51612;SDS011;37694;51.748;14.326;2024-03-23T04:08:20;6.32;;;5.30;;
51612;SDS011;37694;51.748;14.326;2024-03-23T04:10:46;5.68;;;5.07;;
51612;SDS011;37694;51.748;14.326;2024-03-23T04:13:12;6.22;;;5.22;;
51612;SDS011;37694;51.748;14.326;2024-03-23T04:15:38;5.10;;;4.60;;
51612;SDS011;37694;51.748;14.326;2024-03-23T04:18:04;5.95;;;5.00;;
51612;SDS011;37694;51.748;14.326;2024-03-23T04:20:30;6.03;;;5.20;;
51612;SDS011;37694;51.748;14.326;2024-03-23T04:22:57;5.35;;;4.50;;
51612;SDS011;37694;51.748;14.326;2024-03-23T04:25:23;5.43;;;4.82;;
51612;SDS011;37694;51.748;14.326;2024-03-23T04:27:49;11.95;;;5.53;;
51612;SDS011;37694;51.748;14.326;2024-03-23T04:30:15;7.05;;;4.75;;
51612;SDS011;37694;51.748;14.326;2024-03-23T04:32:41;6.80;;;4.80;;
51612;SDS011;37694;51.748;14.326;2024-03-23T04:35:07;5.85;;;5.25;;
51612;SDS011;37694;51.748;14.326;2024-03-23T04:37:35;7.05;;;5.20;;
51612;SDS011;37694;51.748;14.326;2024-03-23T04:40:02;5.53;;;4.50;;
51612;SDS011;37694;51.748;14.326;2024-03-23T04:42:28;4.57;;;4.07;;
51612;SDS011;37694;51.748;14.326;2024-03-23T04:44:54;5.65;;;4.30;;
51612;SDS011;37694;51.748;14.326;2024-03-23T04:47:20;5.88;;;4.53;;
51612;SDS011;37694;51.748;14.326;2024-03-23T04:49:46;6.18;;;4.50;;
51612;SDS011;37694;51.748;14.326;2024-03-23T04:52:12;5.30;;;4.75;;
51612;SDS011;37694;51.748;14.326;2024-03-23T04:54:37;6.07;;;3.70;;
51612;SDS011;37694;51.748;14.326;2024-03-23T04:57:05;5.03;;;4.53;;
51612;SDS011;37694;51.748;14.326;2024-03-23T04:59:31;4.80;;;4.30;;
51612;SDS011;37694;51.748;14.326;2024-03-23T05:01:57;4.53;;;4.03;;
51612;SDS011;37694;51.748;14.326;2024-03-23T05:04:23;5.15;;;4.28;;
51612;SDS011;37694;51.748;14.326;2024-03-23T05:06:48;4.18;;;3.78;;
51612;SDS011;37694;51.748;14.326;2024-03-23T05:09:14;5.53;;;3.75;;
51612;SDS011;37694;51.748;14.326;2024-03-23T05:11:40;4.38;;;3.97;;
51612;SDS011;37694;51.748;14.326;2024-03-23T05:14:10;5.75;;;4.03;;
51612;SDS011;37694;51.748;14.326;2024-03-23T05:16:39;4.90;;;4.10;;
51612;SDS011;37694;51.748;14.326;2024-03-23T05:19:05;5.30;;;4.20;;
51612;SDS011;37694;51.748;14.326;2024-03-23T05:21:31;4.22;;;3.83;;
51612;SDS011;37694;51.748;14.326;2024-03-23T05:23:57;4.60;;;3.90;;
51612;SDS011;37694;51.748;14.326;2024-03-23T05:26:22;4.55;;;3.90;;
51612;SDS011;37694;51.748;14.326;2024-03-23T05:28:48;4.28;;;3.67;;
51612;SDS011;37694;51.748;14.326;2024-03-23T05:31:24;7.95;;;4.05;;
51612;SDS011;37694;51.748;14.326;2024-03-23T05:33:50;6.68;;;3.50;;
51612;SDS011;37694;51.748;14.326;2024-03-23T05:36:16;5.22;;;4.13;;
51612;SDS011;37694;51.748;14.326;2024-03-23T05:38:42;4.22;;;3.53;;
51612;SDS011;37694;51.748;14.326;2024-03-23T05:41:08;6.93;;;3.75;;
51612;SDS011;37694;51.748;14.326;2024-03-23T05:43:33;6.18;;;3.63;;
51612;SDS011;37694;51.748;14.326;2024-03-23T05:45:59;4.45;;;3.85;;
51612;SDS011;37694;51.748;14.326;2024-03-23T05:48:26;4.75;;;3.53;;
51612;SDS011;37694;51.748;14.326;2024-03-23T05:50:52;7.47;;;3.50;;
51612;SDS011;37694;51.748;14.326;2024-03-23T05:53:18;7.65;;;3.75;;
51612;SDS011;37694;51.748;14.326;2024-03-23T05:55:47;4.28;;;3.35;;
51612;SDS011;37694;51.748;14.326;2024-03-23T05:58:17;6.45;;;4.13;;
51612;SDS011;37694;51.748;14.326;2024-03-23T06:00:43;6.15;;;3.83;;
51612;SDS011;37694;51.748;14.326;2024-03-23T06:03:09;4.85;;;3.75;;
51612;SDS011;37694;51.748;14.326;2024-03-23T06:05:38;5.00;;;3.78;;
51612;SDS011;37694;51.748;14.326;2024-03-23T06:08:05;6.95;;;3.40;;
51612;SDS011;37694;51.748;14.326;2024-03-23T06:10:31;6.55;;;3.53;;
51612;SDS011;37694;51.748;14.326;2024-03-23T06:12:57;5.88;;;3.65;;
51612;SDS011;37694;51.748;14.326;2024-03-23T06:15:24;5.25;;;4.35;;
51612;SDS011;37694;51.748;14.326;2024-03-23T06:17:50;5.32;;;3.67;;
51612;SDS011;37694;51.748;14.326;2024-03-23T06:20:15;3.58;;;3.10;;
51612;SDS011;37694;51.748;14.326;2024-03-23T06:22:41;6.15;;;3.20;;
51612;SDS011;37694;51.748;14.326;2024-03-23T06:25:07;4.70;;;3.42;;
51612;SDS011;37694;51.748;14.326;2024-03-23T06:27:33;6.05;;;3.40;;
51612;SDS011;37694;51.748;14.326;2024-03-23T06:29:59;3.40;;;3.10;;
51612;SDS011;37694;51.748;14.326;2024-03-23T06:32:25;3.45;;;3.15;;
51612;SDS011;37694;51.748;14.326;2024-03-23T06:34:51;4.78;;;3.17;;
51612;SDS011;37694;51.748;14.326;2024-03-23T06:37:17;3.40;;;2.97;;
51612;SDS011;37694;51.748;14.326;2024-03-23T06:39:42;5.78;;;3.55;;
51612;SDS011;37694;51.748;14.326;2024-03-23T06:42:08;6.15;;;3.17;;
51612;SDS011;37694;51.748;14.326;2024-03-23T06:44:34;4.93;;;3.42;;
51612;SDS011;37694;51.748;14.326;2024-03-23T06:46:59;3.60;;;2.95;;
51612;SDS011;37694;51.748;14.326;2024-03-23T06:49:25;2.75;;;2.55;;
51612;SDS011;37694;51.748;14.326;2024-03-23T06:51:51;5.93;;;3.20;;
51612;SDS011;37694;51.748;14.326;2024-03-23T06:54:17;3.75;;;3.17;;
51612;SDS011;37694;51.748;14.326;2024-03-23T06:56:44;4.55;;;2.65;;
51612;SDS011;37694;51.748;14.326;2024-03-23T06:59:10;5.13;;;2.78;;
51612;SDS011;37694;51.748;14.326;2024-03-23T07:01:35;4.07;;;2.75;;
51612;SDS011;37694;51.748;14.326;2024-03-23T07:04:01;5.28;;;3.35;;
51612;SDS011;37694;51.748;14.326;2024-03-23T07:06:29;3.72;;;3.35;;
51612;SDS011;37694;51.748;14.326;2024-03-23T07:08:54;4.57;;;2.90;;
51612;SDS011;37694;51.748;14.326;2024-03-23T07:11:21;4.13;;;2.80;;
51612;SDS011;37694;51.748;14.326;2024-03-23T07:13:49;3.70;;;3.05;;
51612;SDS011;37694;51.748;14.326;2024-03-23T07:16:15;2.95;;;2.72;;
51612;SDS011;37694;51.748;14.326;2024-03-23T07:18:41;3.83;;;2.95;;
51612;SDS011;37694;51.748;14.326;2024-03-23T07:21:07;3.40;;;2.80;;
51612;SDS011;37694;51.748;14.326;2024-03-23T07:23:33;3.72;;;2.65;;
51612;SDS011;37694;51.748;14.326;2024-03-23T07:25:59;4.07;;;2.75;;
51612;SDS011;37694;51.748;14.326;2024-03-23T07:28:26;3.15;;;2.65;;
51612;SDS011;37694;51.748;14.326;2024-03-23T07:31:02;4.32;;;2.95;;
51612;SDS011;37694;51.748;14.326;2024-03-23T07:33:36;3.83;;;2.63;;
51612;SDS011;37694;51.748;14.326;2024-03-23T07:36:06;2.95;;;2.75;;
51612;SDS011;37694;51.748;14.326;2024-03-23T07:38:32;4.43;;;2.58;;
51612;SDS011;37694;51.748;14.326;2024-03-23T07:41:04;7.95;;;2.58;;
51612;SDS011;37694;51.748;14.326;2024-03-23T07:43:35;3.38;;;2.42;;
51612;SDS011;37694;51.748;14.326;2024-03-23T07:46:04;4.10;;;2.45;;
51612;SDS011;37694;51.748;14.326;2024-03-23T07:48:30;5.90;;;3.15;;
51612;SDS011;37694;51.748;14.326;2024-03-23T07:50:59;3.53;;;2.83;;
51612;SDS011;37694;51.748;14.326;2024-03-23T07:53:30;3.67;;;2.72;;
51612;SDS011;37694;51.748;14.326;2024-03-23T07:56:00;3.17;;;2.83;;
51612;SDS011;37694;51.748;14.326;2024-03-23T07:58:26;2.97;;;2.55;;
51612;SDS011;37694;51.748;14.326;2024-03-23T08:00:52;3.85;;;2.63;;
51612;SDS011;37694;51.748;14.326;2024-03-23T08:03:19;8.88;;;2.70;;
51612;SDS011;37694;51.748;14.326;2024-03-23T08:05:45;4.60;;;2.95;;
51612;SDS011;37694;51.748;14.326;2024-03-23T08:08:11;9.55;;;2.95;;
51612;SDS011;37694;51.748;14.326;2024-03-23T08:10:37;7.60;;;2.65;;
51612;SDS011;37694;51.748;14.326;2024-03-23T08:13:12;10.40;;;2.72;;
51612;SDS011;37694;51.748;14.326;2024-03-23T08:15:38;5.40;;;2.80;;
51612;SDS011;37694;51.748;14.326;2024-03-23T08:18:04;7.35;;;2.50;;
51612;SDS011;37694;51.748;14.326;2024-03-23T08:20:30;8.20;;;2.80;;
51612;SDS011;37694;51.748;14.326;2024-03-23T08:22:55;14.05;;;2.65;;
51612;SDS011;37694;51.748;14.326;2024-03-23T08:25:21;4.38;;;2.58;;
51612;SDS011;37694;51.748;14.326;2024-03-23T08:27:47;6.03;;;3.20;;
51612;SDS011;37694;51.748;14.326;2024-03-23T08:30:12;7.95;;;2.55;;
51612;SDS011;37694;51.748;14.326;2024-03-23T08:32:38;7.88;;;3.63;;
51612;SDS011;37694;51.748;14.326;2024-03-23T08:35:04;4.72;;;2.90;;
51612;SDS011;37694;51.748;14.326;2024-03-23T08:37:30;6.85;;;2.88;;
51612;SDS011;37694;51.748;14.326;2024-03-23T08:39:56;9.73;;;3.47;;
51612;SDS011;37694;51.748;14.326;2024-03-23T08:42:21;7.07;;;2.80;;
51612;SDS011;37694;51.748;14.326;2024-03-23T08:44:47;7.05;;;2.40;;
51612;SDS011;37694;51.748;14.326;2024-03-23T08:47:16;6.10;;;3.20;;
51612;SDS011;37694;51.748;14.326;2024-03-23T08:49:41;10.57;;;3.22;;
51612;SDS011;37694;51.748;14.326;2024-03-23T08:52:08;3.85;;;2.75;;
51612;SDS011;37694;51.748;14.326;2024-03-23T08:54:33;5.07;;;2.15;;
51612;SDS011;37694;51.748;14.326;2024-03-23T08:56:59;7.07;;;2.90;;
51612;SDS011;37694;51.748;14.326;2024-03-23T08:59:25;8.18;;;2.45;;
51612;SDS011;37694;51.748;14.326;2024-03-23T09:01:51;4.70;;;2.95;;
51612;SDS011;37694;51.748;14.326;2024-03-23T09:04:17;6.43;;;2.58;;
51612;SDS011;37694;51.748;14.326;2024-03-23T09:06:43;2.90;;;2.10;;
51612;SDS011;37694;51.748;14.326;2024-03-23T09:09:09;7.10;;;2.15;;
51612;SDS011;37694;51.748;14.326;2024-03-23T09:11:34;5.88;;;2.42;;
51612;SDS011;37694;51.748;14.326;2024-03-23T09:14:00;10.70;;;2.22;;
51612;SDS011;37694;51.748;14.326;2024-03-23T09:16:26;4.15;;;2.30;;
51612;SDS011;37694;51.748;14.326;2024-03-23T09:18:52;6.40;;;2.50;;
51612;SDS011;37694;51.748;14.326;2024-03-23T09:21:18;16.63;;;2.83;;
51612;SDS011;37694;51.748;14.326;2024-03-23T09:23:44;10.75;;;2.65;;
51612;SDS011;37694;51.748;14.326;2024-03-23T09:26:10;6.97;;;2.15;;
51612;SDS011;37694;51.748;14.326;2024-03-23T09:28:36;11.90;;;2.70;;
51612;SDS011;37694;51.748;14.326;2024-03-23T09:31:05;7.40;;;2.42;;
51612;SDS011;37694;51.748;14.326;2024-03-23T09:33:32;13.60;;;2.72;;
51612;SDS011;37694;51.748;14.326;2024-03-23T09:36:04;8.65;;;2.30;;
51612;SDS011;37694;51.748;14.326;2024-03-23T09:38:30;12.55;;;2.72;;
51612;SDS011;37694;51.748;14.326;2024-03-23T09:40:56;11.00;;;3.13;;
51612;SDS011;37694;51.748;14.326;2024-03-23T09:43:22;11.73;;;3.20;;
51612;SDS011;37694;51.748;14.326;2024-03-23T09:45:48;8.15;;;3.05;;
51612;SDS011;37694;51.748;14.326;2024-03-23T09:48:14;16.38;;;2.63;;
51612;SDS011;37694;51.748;14.326;2024-03-23T09:50:41;16.92;;;2.83;;
51612;SDS011;37694;51.748;14.326;2024-03-23T09:53:09;28.80;;;3.88;;
51612;SDS011;37694;51.748;14.326;2024-03-23T09:55:39;19.92;;;4.10;;
51612;SDS011;37694;51.748;14.326;2024-03-23T09:58:06;28.92;;;4.47;;
51612;SDS011;37694;51.748;14.326;2024-03-23T10:00:32;63.40;;;5.38;;
51612;SDS011;37694;51.748;14.326;2024-03-23T10:02:58;26.50;;;4.50;;
51612;SDS011;37694;51.748;14.326;2024-03-23T10:05:27;21.58;;;2.90;;
51612;SDS011;37694;51.748;14.326;2024-03-23T10:07:54;22.52;;;3.75;;
51612;SDS011;37694;51.748;14.326;2024-03-23T10:10:20;25.38;;;3.60;;
51612;SDS011;37694;51.748;14.326;2024-03-23T10:12:49;22.92;;;3.70;;
51612;SDS011;37694;51.748;14.326;2024-03-23T10:15:24;16.13;;;3.08;;
51612;SDS011;37694;51.748;14.326;2024-03-23T10:17:50;16.65;;;5.25;;
51612;SDS011;37694;51.748;14.326;2024-03-23T10:20:20;21.27;;;3.88;;
51612;SDS011;37694;51.748;14.326;2024-03-23T10:22:48;17.20;;;2.80;;
51612;SDS011;37694;51.748;14.326;2024-03-23T10:25:14;22.30;;;3.42;;
51612;SDS011;37694;51.748;14.326;2024-03-23T10:27:40;20.92;;;3.45;;
51612;SDS011;37694;51.748;14.326;2024-03-23T10:30:09;16.33;;;3.38;;
51612;SDS011;37694;51.748;14.326;2024-03-23T10:32:41;18.50;;;4.65;;
51612;SDS011;37694;51.748;14.326;2024-03-23T10:35:13;25.63;;;3.67;;
51612;SDS011;37694;51.748;14.326;2024-03-23T10:37:49;21.90;;;3.22;;
51612;SDS011;37694;51.748;14.326;2024-03-23T10:40:16;12.63;;;3.05;;
51612;SDS011;37694;51.748;14.326;2024-03-23T10:42:43;27.30;;;3.42;;
51612;SDS011;37694;51.748;14.326;2024-03-23T10:45:09;34.13;;;3.25;;
51612;SDS011;37694;51.748;14.326;2024-03-23T10:47:36;26.73;;;4.25;;
51612;SDS011;37694;51.748;14.326;2024-03-23T10:50:06;30.70;;;6.45;;
51612;SDS011;37694;51.748;14.326;2024-03-23T10:52:34;29.75;;;4.95;;
51612;SDS011;37694;51.748;14.326;2024-03-23T10:55:02;24.55;;;3.35;;
51612;SDS011;37694;51.748;14.326;2024-03-23T10:57:34;19.77;;;3.30;;
51612;SDS011;37694;51.748;14.326;2024-03-23T11:00:06;21.90;;;3.72;;
51612;SDS011;37694;51.748;14.326;2024-03-23T11:02:33;16.23;;;3.05;;
51612;SDS011;37694;51.748;14.326;2024-03-23T11:04:59;13.32;;;3.40;;
51612;SDS011;37694;51.748;14.326;2024-03-23T11:09:57;28.45;;;3.47;;
51612;SDS011;37694;51.748;14.326;2024-03-23T11:14:52;20.35;;;3.40;;
51612;SDS011;37694;51.748;14.326;2024-03-23T11:17:21;20.08;;;3.25;;
51612;SDS011;37694;51.748;14.326;2024-03-23T11:19:54;14.40;;;2.95;;
51612;SDS011;37694;51.748;14.326;2024-03-23T11:25:16;12.05;;;2.50;;
51612;SDS011;37694;51.748;14.326;2024-03-23T11:27:42;18.00;;;2.72;;
51612;SDS011;37694;51.748;14.326;2024-03-23T11:32:51;21.90;;;3.38;;
51612;SDS011;37694;51.748;14.326;2024-03-23T11:43:11;17.98;;;3.60;;
51612;SDS011;37694;51.748;14.326;2024-03-23T11:45:45;8.48;;;2.33;;
51612;SDS011;37694;51.748;14.326;2024-03-23T11:50:43;8.32;;;3.00;;
51612;SDS011;37694;51.748;14.326;2024-03-23T11:55:49;23.52;;;3.70;;
51612;SDS011;37694;51.748;14.326;2024-03-23T11:58:16;16.63;;;3.20;;
51612;SDS011;37694;51.748;14.326;2024-03-23T12:00:50;11.75;;;4.30;;
51612;SDS011;37694;51.748;14.326;2024-03-23T12:03:17;11.55;;;3.08;;
51612;SDS011;37694;51.748;14.326;2024-03-23T12:05:49;15.25;;;2.65;;
51612;SDS011;37694;51.748;14.326;2024-03-23T12:10:49;22.90;;;3.72;;
51612;SDS011;37694;51.748;14.326;2024-03-23T12:13:17;13.85;;;3.10;;
51612;SDS011;37694;51.748;14.326;2024-03-23T12:15:44;13.00;;;2.88;;
51612;SDS011;37694;51.748;14.326;2024-03-23T12:18:11;16.42;;;3.30;;
51612;SDS011;37694;51.748;14.326;2024-03-23T12:20:37;19.80;;;3.20;;
51612;SDS011;37694;51.748;14.326;2024-03-23T12:23:07;13.52;;;3.47;;
51612;SDS011;37694;51.748;14.326;2024-03-23T12:25:37;11.05;;;2.55;;
51612;SDS011;37694;51.748;14.326;2024-03-23T12:28:06;7.03;;;2.50;;
51612;SDS011;37694;51.748;14.326;2024-03-23T12:30:36;12.30;;;2.78;;
51612;SDS011;37694;51.748;14.326;2024-03-23T12:33:06;8.10;;;2.13;;
51612;SDS011;37694;51.748;14.326;2024-03-23T12:35:32;6.72;;;2.28;;
51612;SDS011;37694;51.748;14.326;2024-03-23T12:37:58;8.07;;;2.15;;
51612;SDS011;37694;51.748;14.326;2024-03-23T12:40:24;5.68;;;2.20;;
51612;SDS011;37694;51.748;14.326;2024-03-23T12:42:50;11.85;;;3.22;;
51612;SDS011;37694;51.748;14.326;2024-03-23T12:45:16;8.52;;;2.72;;
51612;SDS011;37694;51.748;14.326;2024-03-23T12:47:41;12.73;;;3.03;;
51612;SDS011;37694;51.748;14.326;2024-03-23T12:50:07;24.90;;;4.47;;
51612;SDS011;37694;51.748;14.326;2024-03-23T12:52:34;18.13;;;3.25;;
51612;SDS011;37694;51.748;14.326;2024-03-23T12:55:01;12.55;;;3.08;;
51612;SDS011;37694;51.748;14.326;2024-03-23T12:57:26;11.73;;;2.38;;
51612;SDS011;37694;51.748;14.326;2024-03-23T12:59:52;16.45;;;2.83;;
51612;SDS011;37694;51.748;14.326;2024-03-23T13:02:19;8.95;;;2.10;;
51612;SDS011;37694;51.748;14.326;2024-03-23T13:04:54;30.00;;;3.28;;
51612;SDS011;37694;51.748;14.326;2024-03-23T13:07:21;9.05;;;2.47;;
51612;SDS011;37694;51.748;14.326;2024-03-23T13:09:50;15.02;;;2.58;;
51612;SDS011;37694;51.748;14.326;2024-03-23T13:12:17;12.60;;;2.25;;
51612;SDS011;37694;51.748;14.326;2024-03-23T13:14:46;8.23;;;2.40;;
51612;SDS011;37694;51.748;14.326;2024-03-23T13:17:12;13.30;;;2.30;;
51612;SDS011;37694;51.748;14.326;2024-03-23T13:19:38;9.02;;;2.45;;
51612;SDS011;37694;51.748;14.326;2024-03-23T13:22:04;10.93;;;1.60;;
51612;SDS011;37694;51.748;14.326;2024-03-23T13:24:30;12.30;;;2.20;;
51612;SDS011;37694;51.748;14.326;2024-03-23T13:26:56;5.43;;;2.33;;
51612;SDS011;37694;51.748;14.326;2024-03-23T13:29:22;11.20;;;2.17;;
51612;SDS011;37694;51.748;14.326;2024-03-23T13:31:49;9.30;;;2.20;;
51612;SDS011;37694;51.748;14.326;2024-03-23T13:34:16;7.53;;;1.90;;
51612;SDS011;37694;51.748;14.326;2024-03-23T13:36:42;9.75;;;1.88;;
51612;SDS011;37694;51.748;14.326;2024-03-23T13:39:09;7.68;;;1.75;;
51612;SDS011;37694;51.748;14.326;2024-03-23T13:41:39;4.13;;;1.17;;
51612;SDS011;37694;51.748;14.326;2024-03-23T13:44:08;4.97;;;1.08;;
51612;SDS011;37694;51.748;14.326;2024-03-23T13:46:38;2.42;;;0.93;;
51612;SDS011;37694;51.748;14.326;2024-03-23T13:49:07;4.22;;;1.20;;
51612;SDS011;37694;51.748;14.326;2024-03-23T13:51:37;2.63;;;1.30;;
51612;SDS011;37694;51.748;14.326;2024-03-23T13:54:03;6.80;;;0.88;;
51612;SDS011;37694;51.748;14.326;2024-03-23T13:56:29;3.35;;;0.90;;
51612;SDS011;37694;51.748;14.326;2024-03-23T13:58:55;4.10;;;1.30;;
51612;SDS011;37694;51.748;14.326;2024-03-23T14:01:21;9.35;;;2.42;;
51612;SDS011;37694;51.748;14.326;2024-03-23T14:03:47;12.65;;;2.63;;
51612;SDS011;37694;51.748;14.326;2024-03-23T14:06:13;6.93;;;1.38;;
51612;SDS011;37694;51.748;14.326;2024-03-23T14:08:39;4.85;;;0.90;;
51612;SDS011;37694;51.748;14.326;2024-03-23T14:11:05;4.38;;;0.93;;
51612;SDS011;37694;51.748;14.326;2024-03-23T14:13:31;2.50;;;0.60;;
51612;SDS011;37694;51.748;14.326;2024-03-23T14:15:57;4.10;;;0.80;;
51612;SDS011;37694;51.748;14.326;2024-03-23T14:18:23;3.78;;;0.98;;
51612;SDS011;37694;51.748;14.326;2024-03-23T14:20:49;5.78;;;1.15;;
51612;SDS011;37694;51.748;14.326;2024-03-23T14:23:15;4.22;;;1.10;;
51612;SDS011;37694;51.748;14.326;2024-03-23T14:25:42;7.32;;;1.20;;
51612;SDS011;37694;51.748;14.326;2024-03-23T14:28:08;6.65;;;1.00;;
51612;SDS011;37694;51.748;14.326;2024-03-23T14:30:40;6.55;;;1.40;;
51612;SDS011;37694;51.748;14.326;2024-03-23T14:33:06;13.45;;;1.40;;
51612;SDS011;37694;51.748;14.326;2024-03-23T14:35:32;8.90;;;2.42;;
51612;SDS011;37694;51.748;14.326;2024-03-23T14:37:58;4.88;;;1.30;;
51612;SDS011;37694;51.748;14.326;2024-03-23T14:40:24;9.15;;;2.28;;
51612;SDS011;37694;51.748;14.326;2024-03-23T14:42:56;13.23;;;1.48;;
51612;SDS011;37694;51.748;14.326;2024-03-23T14:45:21;6.50;;;1.33;;
51612;SDS011;37694;51.748;14.326;2024-03-23T14:47:49;12.45;;;1.40;;
51612;SDS011;37694;51.748;14.326;2024-03-23T14:50:15;11.52;;;2.28;;
51612;SDS011;37694;51.748;14.326;2024-03-23T14:52:44;10.75;;;2.13;;
51612;SDS011;37694;51.748;14.326;2024-03-23T14:55:11;16.33;;;2.45;;
51612;SDS011;37694;51.748;14.326;2024-03-23T14:57:37;11.63;;;1.70;;
51612;SDS011;37694;51.748;14.326;2024-03-23T15:00:07;6.13;;;1.60;;
51612;SDS011;37694;51.748;14.326;2024-03-23T15:02:35;7.18;;;1.52;;
51612;SDS011;37694;51.748;14.326;2024-03-23T15:05:02;8.38;;;2.08;;
51612;SDS011;37694;51.748;14.326;2024-03-23T15:07:29;19.27;;;2.00;;
51612;SDS011;37694;51.748;14.326;2024-03-23T15:09:58;10.73;;;1.50;;
51612;SDS011;37694;51.748;14.326;2024-03-23T15:12:23;18.55;;;2.00;;
51612;SDS011;37694;51.748;14.326;2024-03-23T15:14:49;6.90;;;1.40;;
51612;SDS011;37694;51.748;14.326;2024-03-23T15:17:15;7.63;;;2.75;;
51612;SDS011;37694;51.748;14.326;2024-03-23T15:19:40;13.75;;;2.15;;
51612;SDS011;37694;51.748;14.326;2024-03-23T15:22:09;11.60;;;2.42;;
51612;SDS011;37694;51.748;14.326;2024-03-23T15:24:35;11.07;;;1.60;;
51612;SDS011;37694;51.748;14.326;2024-03-23T15:27:01;5.82;;;1.50;;
51612;SDS011;37694;51.748;14.326;2024-03-23T15:29:28;14.02;;;2.80;;
51612;SDS011;37694;51.748;14.326;2024-03-23T15:31:53;7.43;;;1.55;;
51612;SDS011;37694;51.748;14.326;2024-03-23T15:34:19;13.00;;;2.22;;
51612;SDS011;37694;51.748;14.326;2024-03-23T15:36:48;7.07;;;1.90;;
51612;SDS011;37694;51.748;14.326;2024-03-23T15:39:15;19.05;;;1.75;;
51612;SDS011;37694;51.748;14.326;2024-03-23T15:41:47;10.90;;;1.90;;
51612;SDS011;37694;51.748;14.326;2024-03-23T15:44:12;6.43;;;1.70;;
51612;SDS011;37694;51.748;14.326;2024-03-23T15:46:38;13.23;;;2.33;;
51612;SDS011;37694;51.748;14.326;2024-03-23T15:49:04;6.53;;;1.60;;